• pl
  • eng

Awiacja
Kliknij na pogrubioną czerwoną nazwę, aby odkodować depeszę. 16:31 25.02.2017
  • WIND
  • SIGNIFICANT EURO
  • SIGNIFICANT
  • SIGMET
  • AIRMET
  • TAF FC
  • TAF FT
  • METAR GG30
  • METAR GG00


METAR EPBY 251530Z 26011KT CAVOK 03/M04 Q1017 =

METAR EPGD 251530Z 26011KT CAVOK 02/M05 Q1014 =

METAR EPKK 251530Z 26010KT 9999 FEW046 02/M05 Q1021 =

METAR EPKT 251530Z 27011KT 9999 FEW033 SCT039 02/M05 Q1021 =

METAR EPLB 251530Z 29010KT 9999 FEW040 02/M05 Q1018 =

METAR EPLL 251530Z 24012KT 9999 FEW034 01/M03 Q1019 =

METAR EPMO 251530Z 26011KT 9999 FEW032 02/M03 Q1018 =

METAR EPPO 251530Z 23007KT 9999 SCT047 04/M02 Q1019 R10/290095 =

METAR EPRA 251530Z 27011KT 9999 FEW038 02/M06 Q1019=

METAR EPRZ 251530Z 28015KT 9999 SCT040 03/M07 Q1020 =

METAR EPSC 251530Z 21008KT 180V240 9999 FEW026 BKN036 05/M00 Q1016 =

METAR EPSY 251530Z 26009KT 230V300 CAVOK 03/M08 Q1015=

METAR EPWA 251530Z 28007KT 240V310 9999 FEW032 02/M04 Q1018
R33/2///95 NOSIG=

METAR EPWR 251530Z 26008KT 9999 FEW040 04/M04 Q1021 =

METAR EPZG 251530Z 22009KT 9999 BKN045 05/M02 Q1019 =
Awiacja.imgw.pl jest pogodowym serwisem informacyjnym
Instytutu Meteorologii i Gospodarki Wodnej Państwowego Instytutu Badawczego.
Copyright IMGW PIB 2009-2011© Wszelkie prawa zastrzeżone.